Time;durP1;ratioP1;P1;durP2;ratioP2;P2;SDS_P1;SDS_P2;PMS_P1;PMS_P2;Temp;Humidity;BMP_temperature;BMP_pressure;BME280_temperature;BME280_humidity;BME280_pressure;Samples;Min_cycle;Max_cycle;Signal;HPM_P1;HPM_P2
2023/10/02 04:45:44;;;;;;;;;;;;;;;19.14;69.67;97677.44;4224608;27;10391;-58
2023/10/02 04:47:48;;;;;;;;;;;;;;;19.42;68.83;97682.19;4230773;28;5727;-59
2023/10/02 04:52:14;;;;;;;;;;;;;;;19.84;67.50;97679.56;4229082;28;5640;-59
2023/10/02 04:54:16;;;;;;;;;;;;;;;19.96;67.29;97684.94;4230369;28;5723;-60
2023/10/02 04:56:24;;;;;;;;;;;;;;;20.08;66.93;97683.09;4231571;28;5735;-59
2023/10/02 04:58:28;;;;;;;;;;;;;;;20.17;66.35;97675.53;4231001;28;5958;-60
2023/10/02 05:00:34;;;;;;;;;;;;;;;20.24;65.93;97679.69;4232812;27;5785;-61
2023/10/02 05:02:39;;;;;;;;;;;;;;;20.30;65.66;97681.47;4231038;27;5735;-61
2023/10/02 05:04:42;;;;;;;;;;;;;;;20.34;65.30;97676.44;4224635;28;5767;-60
2023/10/02 05:06:44;;;;;;;;;;;;;;;20.39;65.30;97673.88;4226261;28;5733;-60
2023/10/02 05:11:23;;;;;;;;;;;;;;;20.45;64.71;97677.53;4225819;28;5791;-61
2023/10/02 05:18:18;;;;;;;;;;;;;;;20.46;63.92;97684.53;4261276;27;10356;-60
2023/10/02 05:20:26;;;;;;;;;;;;;;;20.44;63.73;97679.38;4252351;27;5778;-60
2023/10/02 05:22:31;;;;;;;;;;;;;;;20.44;63.53;97675.88;4240470;27;5728;-60
2023/10/02 05:24:34;;;;;;;;;;;;;;;20.43;63.51;97679.63;4238835;27;5738;-61
2023/10/02 05:26:39;;;;;;;;;;;;;;;20.44;63.69;97690.13;4240213;27;5724;-61
2023/10/02 05:28:44;;;;;;;;;;;;;;;20.46;63.18;97692.56;4239387;27;7703;-60
2023/10/02 05:30:48;;;;;;;;;;;;;;;20.46;63.21;97696.09;4247230;27;5788;-61
2023/10/02 05:32:51;;;;;;;;;;;;;;;20.47;62.72;97696.91;4243792;27;5649;-61
2023/10/02 05:35:05;;;;;;;;;;;;;;;20.48;62.67;97699.34;4247017;27;5700;-59
2023/10/02 05:37:12;;;;;;;;;;;;;;;20.49;62.42;97700.97;4248412;27;5732;-61
2023/10/02 05:39:29;;;;;;;;;;;;;;;20.49;62.38;97700.16;4249204;27;5657;-65
2023/10/02 05:41:40;;;;;;;;;;;;;;;20.51;62.23;97706.13;4242349;27;5650;-59
2023/10/02 05:43:55;;;;;;;;;;;;;;;20.51;62.26;97703.47;4248210;27;5840;-59
2023/10/02 05:45:58;;;;;;;;;;;;;;;20.53;62.32;97701.34;4264681;27;5707;-57
2023/10/02 05:48:00;;;;;;;;;;;;;;;20.53;61.91;97706.72;4260102;27;5100;-59
2023/10/02 05:50:06;;;;;;;;;;;;;;;20.54;61.49;97698.41;4248740;27;5729;-57
2023/10/02 05:52:09;;;;;;;;;;;;;;;20.54;61.51;97697.59;4248969;27;5653;-59
2023/10/02 05:54:16;;;;;;;;;;;;;;;20.55;61.51;97707.28;4248755;27;5661;-58
2023/10/02 05:56:19;;;;;;;;;;;;;;;20.57;61.65;97713.25;4248750;27;5642;-59
2023/10/02 05:58:27;;;;;;;;;;;;;;;20.56;61.56;97711.63;4248628;27;5653;-59
2023/10/02 06:00:35;;;;;;;;;;;;;;;20.57;61.15;97710.56;4248784;27;5657;-59
2023/10/02 06:02:56;;;;;;;;;;;;;;;20.58;61.32;97710.31;4248430;27;5764;-59
2023/10/02 06:05:11;;;;;;;;;;;;;;;20.59;60.90;97716.50;4247848;27;5669;-58
2023/10/02 06:07:39;;;;;;;;;;;;;;;20.59;61.14;97711.13;4248521;27;5642;-58
2023/10/02 06:09:50;;;;;;;;;;;;;;;20.60;60.79;97716.28;4248554;27;5717;-58
2023/10/02 06:12:05;;;;;;;;;;;;;;;20.60;60.74;97712.78;4248493;27;6467;-58
2023/10/02 06:14:12;;;;;;;;;;;;;;;20.62;60.84;97718.75;4248427;27;5657;-58
2023/10/02 06:16:14;;;;;;;;;;;;;;;20.62;60.95;97714.19;4248160;27;5642;-57
2023/10/02 06:18:25;;;;;;;;;;;;;;;20.63;60.81;97713.13;4248380;27;6320;-58
2023/10/02 06:20:30;;;;;;;;;;;;;;;20.65;60.60;97715.59;4248342;27;5913;-58
2023/10/02 06:22:47;;;;;;;;;;;;;;;20.66;60.87;97714.53;4248427;27;5744;-58
2023/10/02 06:24:51;;;;;;;;;;;;;;;20.68;60.41;97714.28;4248398;27;5653;-59
2023/10/02 06:26:57;;;;;;;;;;;;;;;20.67;60.35;97718.84;4248234;27;6043;-59
2023/10/02 06:29:19;;;;;;;;;;;;;;;20.68;60.58;97715.09;4240296;27;7659;-58
2023/10/02 06:31:31;;;;;;;;;;;;;;;20.70;60.28;97712.19;4236860;28;5657;-58
2023/10/02 06:33:36;;;;;;;;;;;;;;;20.72;60.51;97720.81;4236867;28;5646;-58
2023/10/02 06:35:45;;;;;;;;;;;;;;;20.72;60.43;97716.25;4236517;28;5955;-58
2023/10/02 06:37:48;;;;;;;;;;;;;;;20.73;59.98;97717.09;4236655;28;5650;-58
2023/10/02 06:40:04;;;;;;;;;;;;;;;20.73;60.25;97715.25;4236765;28;5642;-57
2023/10/02 06:42:07;;;;;;;;;;;;;;;20.75;60.00;97726.56;4236600;28;5638;-58
2023/10/02 06:44:15;;;;;;;;;;;;;;;20.76;60.11;97722.81;4236652;28;5657;-58
2023/10/02 06:46:19;;;;;;;;;;;;;;;20.76;59.78;97730.88;4236570;28;5658;-58
2023/10/02 06:48:24;;;;;;;;;;;;;;;20.78;60.02;97722.56;4236595;28;5808;-58
2023/10/02 06:50:30;;;;;;;;;;;;;;;20.78;60.14;97726.09;4236283;28;7362;-57
2023/10/02 06:52:34;;;;;;;;;;;;;;;20.79;59.57;97733.09;4236537;28;6318;-58
2023/10/02 06:54:42;;;;;;;;;;;;;;;20.81;59.70;97727.47;4236024;28;5654;-59
2023/10/02 06:56:47;;;;;;;;;;;;;;;20.81;59.65;97730.97;4236490;28;5728;-59
2023/10/02 06:58:49;;;;;;;;;;;;;;;20.83;59.50;97730.75;4236417;28;5645;-59
2023/10/02 07:01:01;;;;;;;;;;;;;;;20.83;59.68;97734.25;4236531;28;5769;-59
2023/10/02 07:03:04;;;;;;;;;;;;;;;20.85;59.58;97742.09;4236621;28;5217;-59
2023/10/02 07:05:10;;;;;;;;;;;;;;;20.85;59.68;97732.16;4236097;28;6369;-58
2023/10/02 07:07:12;;;;;;;;;;;;;;;20.88;59.78;97741.63;4236520;28;5799;-59
2023/10/02 07:09:16;;;;;;;;;;;;;;;20.90;59.56;97731.44;4236311;28;6466;-59
2023/10/02 07:11:22;;;;;;;;;;;;;;;20.88;59.61;97731.69;4236305;28;5638;-59
2023/10/02 07:13:25;;;;;;;;;;;;;;;20.91;59.56;97730.38;4236343;28;5661;-58
2023/10/02 07:15:28;;;;;;;;;;;;;;;20.92;59.78;97729.31;4236307;28;5979;-58
2023/10/02 07:17:31;;;;;;;;;;;;;;;20.92;59.54;97730.16;4235645;28;7275;-58
2023/10/02 07:19:38;;;;;;;;;;;;;;;20.93;60.00;97723.72;4236235;28;5827;-58
2023/10/02 07:21:41;;;;;;;;;;;;;;;20.96;59.88;97727.81;4236110;28;5851;-58
2023/10/02 07:23:45;;;;;;;;;;;;;;;20.97;59.95;97724.06;4236002;28;5650;-58
2023/10/02 07:25:51;;;;;;;;;;;;;;;20.99;59.69;97723.84;4236077;28;5773;-58
2023/10/02 07:27:57;;;;;;;;;;;;;;;20.99;59.50;97724.66;4235983;28;5642;-58
2023/10/02 07:30:02;;;;;;;;;;;;;;;21.01;59.78;97732.47;4236031;28;5669;-58
2023/10/02 07:32:04;;;;;;;;;;;;;;;21.03;59.50;97728.50;4236071;28;5646;-58
2023/10/02 07:34:08;;;;;;;;;;;;;;;21.04;59.36;97734.69;4235864;28;5658;-58
2023/10/02 07:36:14;;;;;;;;;;;;;;;21.05;59.58;97736.31;4235635;28;5634;-58
2023/10/02 07:38:18;;;;;;;;;;;;;;;21.06;59.70;97729.88;4235770;28;5654;-58
2023/10/02 07:40:21;;;;;;;;;;;;;;;21.06;59.70;97732.56;4234680;27;5653;-59
2023/10/02 07:42:29;;;;;;;;;;;;;;;21.08;59.31;97735.88;4235457;28;5084;-59
2023/10/02 07:44:36;;;;;;;;;;;;;;;21.08;59.36;97725.94;4235669;28;7679;-59
2023/10/02 07:46:41;;;;;;;;;;;;;;;21.11;59.40;97721.94;4235622;28;5936;-59
2023/10/02 07:48:57;;;;;;;;;;;;;;;21.13;59.70;97725.19;4235587;28;5658;-59
2023/10/02 07:51:00;;;;;;;;;;;;;;;21.14;59.36;97730.34;4235444;28;5649;-59
2023/10/02 07:53:06;;;;;;;;;;;;;;;21.16;59.41;97732.78;4235729;28;5702;-59
2023/10/02 07:55:10;;;;;;;;;;;;;;;21.18;59.71;97736.06;4235616;28;6446;-59
2023/10/02 07:57:13;;;;;;;;;;;;;;;21.19;59.54;97735.03;4235620;28;5653;-59
2023/10/02 07:59:18;;;;;;;;;;;;;;;21.20;59.65;97732.09;4235437;28;5647;-59
2023/10/02 08:01:23;;;;;;;;;;;;;;;21.22;59.60;97726.47;4235574;28;5807;-59
2023/10/02 08:03:36;;;;;;;;;;;;;;;21.23;59.71;97733.47;4235429;28;5766;-58
2023/10/02 08:05:38;;;;;;;;;;;;;;;21.25;59.42;97735.91;4235417;28;5728;-59
2023/10/02 08:07:41;;;;;;;;;;;;;;;21.26;59.16;97726.81;4235527;28;5638;-59
2023/10/02 08:09:47;;;;;;;;;;;;;;;21.28;59.63;97732.78;4235384;28;5725;-59
2023/10/02 08:11:53;;;;;;;;;;;;;;;21.28;59.04;97730.91;4235361;28;5638;-59
2023/10/02 08:13:56;;;;;;;;;;;;;;;21.29;59.54;97735.22;4235362;28;5721;-58
2023/10/02 08:16:07;;;;;;;;;;;;;;;21.31;59.55;97727.75;4235183;28;5757;-58
2023/10/02 08:18:17;;;;;;;;;;;;;;;21.32;59.34;97732.09;4234850;28;5886;-58
2023/10/02 08:20:24;;;;;;;;;;;;;;;21.32;59.17;97726.69;4235090;28;5794;-58
2023/10/02 08:22:35;;;;;;;;;;;;;;;21.34;59.05;97731.84;4235294;28;5670;-58
2023/10/02 08:24:39;;;;;;;;;;;;;;;21.34;59.10;97723.78;4218227;28;5671;-58
2023/10/02 08:26:44;;;;;;;;;;;;;;;21.36;59.23;97727.03;4227034;28;5775;-58
2023/10/02 08:28:48;;;;;;;;;;;;;;;21.35;58.68;97726.22;4235170;28;5814;-58
2023/10/02 08:30:59;;;;;;;;;;;;;;;21.35;58.98;97725.41;4234989;28;5666;-58
2023/10/02 08:33:08;;;;;;;;;;;;;;;21.37;58.97;97732.16;4235145;28;5749;-59
2023/10/02 08:35:31;;;;;;;;;;;;;;;21.40;58.99;97722.78;4234775;28;5678;-59
2023/10/02 08:37:34;;;;;;;;;;;;;;;21.42;58.38;97721.53;4234918;28;6344;-59
2023/10/02 08:39:38;;;;;;;;;;;;;;;21.45;58.33;97714.84;4234739;28;5721;-59
2023/10/02 08:41:44;;;;;;;;;;;;;;;21.46;58.62;97721.84;4234880;28;5691;-59
2023/10/02 08:43:47;;;;;;;;;;;;;;;21.48;58.15;97719.75;4234941;28;5654;-59
2023/10/02 08:45:51;;;;;;;;;;;;;;;21.48;58.26;97714.34;4234814;28;5653;-59
2023/10/02 08:47:54;;;;;;;;;;;;;;;21.49;58.05;97706.03;4234802;28;5709;-59
2023/10/02 08:50:04;;;;;;;;;;;;;;;21.51;58.02;97714.69;4234846;28;5657;-59
2023/10/02 08:52:09;;;;;;;;;;;;;;;21.50;57.52;97707.66;4234459;28;5750;-59
2023/10/02 08:54:12;;;;;;;;;;;;;;;21.53;57.43;97710.97;4234769;28;5737;-59
2023/10/02 08:56:24;;;;;;;;;;;;;;;21.53;57.67;97710.97;4234787;28;5773;-57
2023/10/02 08:58:29;;;;;;;;;;;;;;;21.54;57.67;97716.09;4234852;28;5745;-57
2023/10/02 09:00:31;;;;;;;;;;;;;;;21.55;57.66;97706.97;4234938;28;5654;-58
2023/10/02 09:02:40;;;;;;;;;;;;;;;21.58;57.49;97709.16;4234793;28;5811;-58
2023/10/02 09:05:09;;;;;;;;;;;;;;;21.58;57.50;97709.16;4234762;28;5638;-58
2023/10/02 09:07:24;;;;;;;;;;;;;;;21.60;57.91;97703.53;4234650;28;5650;-58
2023/10/02 09:09:27;;;;;;;;;;;;;;;21.61;57.86;97702.47;4234793;28;5634;-58
2023/10/02 09:11:34;;;;;;;;;;;;;;;21.62;57.85;97704.94;4234553;28;5661;-58
2023/10/02 09:13:37;;;;;;;;;;;;;;;21.62;57.54;97704.94;4234621;28;5798;-58
2023/10/02 09:15:44;;;;;;;;;;;;;;;21.64;57.90;97702.03;4234685;28;5803;-59
2023/10/02 09:17:48;;;;;;;;;;;;;;;21.65;57.90;97698.28;4234192;28;5658;-58
2023/10/02 09:19:58;;;;;;;;;;;;;;;21.67;57.72;97701.53;4234423;28;5646;-58
2023/10/02 09:22:10;;;;;;;;;;;;;;;21.67;57.49;97690.75;4234347;28;5756;-59
2023/10/02 09:24:20;;;;;;;;;;;;;;;21.67;57.87;97696.16;4234636;28;5060;-59
2023/10/02 09:26:24;;;;;;;;;;;;;;;21.68;57.80;97695.09;4234526;28;5744;-59
2023/10/02 09:28:40;;;;;;;;;;;;;;;21.66;57.95;97681.88;4234387;28;5816;-59
2023/10/02 09:30:43;;;;;;;;;;;;;;;21.69;57.66;97688.66;4234581;28;5752;-59
2023/10/02 09:32:49;;;;;;;;;;;;;;;21.70;57.65;97690.28;4234559;28;6431;-59
2023/10/02 09:35:11;;;;;;;;;;;;;;;21.70;57.38;97685.72;4234266;28;5857;-59
2023/10/02 09:37:36;;;;;;;;;;;;;;;21.70;57.37;97685.72;4234479;28;5784;-59
2023/10/02 09:39:59;;;;;;;;;;;;;;;21.72;57.32;97683.59;4234349;28;6009;-59
2023/10/02 09:42:07;;;;;;;;;;;;;;;21.73;57.22;97689.78;4234368;28;5654;-58
2023/10/02 09:44:15;;;;;;;;;;;;;;;21.74;57.11;97677.94;4234418;28;5079;-59
2023/10/02 09:46:22;;;;;;;;;;;;;;;21.76;57.52;97683.94;4234356;28;5634;-58
2023/10/02 09:48:52;;;;;;;;;;;;;;;21.76;57.20;97681.25;4234344;28;5725;-58
2023/10/02 09:51:06;;;;;;;;;;;;;;;21.75;57.33;97683.13;4234038;27;5642;-58
2023/10/02 09:53:16;;;;;;;;;;;;;;;21.75;57.43;97682.31;4234523;28;5646;-59
2023/10/02 09:55:34;;;;;;;;;;;;;;;21.77;57.37;97680.19;4234169;28;5646;-58
2023/10/02 09:57:39;;;;;;;;;;;;;;;21.77;57.27;97672.09;4234020;28;5810;-58
2023/10/02 09:59:48;;;;;;;;;;;;;;;21.77;57.35;97670.22;4233915;28;5815;-58
2023/10/02 10:08:18;;;;;;;;;;;;;;;21.79;57.50;97669.97;4185198;28;5772;-58
2023/10/02 10:10:27;;;;;;;;;;;;;;;21.78;57.37;97661.09;4185394;28;5666;-59
2023/10/02 10:12:55;;;;;;;;;;;;;;;21.78;57.62;97663.78;4185255;28;5697;-59
2023/10/02 10:15:23;;;;;;;;;;;;;;;21.79;57.40;97664.59;4184986;28;5863;-59
2023/10/02 10:17:58;;;;;;;;;;;;;;;21.81;57.20;97654.41;4169660;28;5714;-58
2023/10/02 10:20:25;;;;;;;;;;;;;;;21.80;57.41;97648.19;4168178;28;5780;-58
2023/10/02 10:22:36;;;;;;;;;;;;;;;21.80;57.20;97642.81;4168427;28;5771;-57
2023/10/02 10:24:56;;;;;;;;;;;;;;;21.82;57.30;97639.88;4168475;28;5704;-60
2023/10/02 10:27:02;;;;;;;;;;;;;;;21.83;57.31;97641.50;4168416;28;5767;-58
2023/10/02 10:30:09;;;;;;;;;;;;;;;21.85;56.98;97642.06;4168516;28;5680;-58
2023/10/02 10:32:17;;;;;;;;;;;;;;;21.87;57.25;97642.69;4161774;28;5680;-58
2023/10/02 10:35:11;;;;;;;;;;;;;;;21.87;56.95;97636.47;4168132;28;5716;-58
2023/10/02 10:37:41;;;;;;;;;;;;;;;21.88;56.87;97636.22;4168227;28;5709;-58
2023/10/02 10:40:40;;;;;;;;;;;;;;;21.88;57.18;97636.22;4175916;28;5823;-58
2023/10/02 10:42:25;;;;;;;;;;;;;;;21.89;57.34;97635.16;4219737;28;5691;-58
2023/10/02 10:44:33;;;;;;;;;;;;;;;21.89;56.99;97629.78;4219903;28;5930;-59
2023/10/02 10:46:39;;;;;;;;;;;;;;;21.92;57.19;97629.28;4219916;28;5675;-59
2023/10/02 10:48:45;;;;;;;;;;;;;;;21.92;56.90;97634.66;4219900;28;5663;-59
2023/10/02 10:50:57;;;;;;;;;;;;;;;21.93;56.70;97636.28;4219938;28;5753;-59
2023/10/02 10:55:33;;;;;;;;;;;;;;;21.99;56.41;97635.31;4219530;28;5753;-59
2023/10/02 10:57:52;;;;;;;;;;;;;;;21.99;56.83;97629.13;4219897;28;5734;-59
2023/10/02 11:00:23;;;;;;;;;;;;;;;22.01;56.41;97627.00;4219610;28;5746;-59
2023/10/02 11:02:29;;;;;;;;;;;;;;;22.03;56.63;97631.06;4219525;28;5686;-59
2023/10/02 11:04:34;;;;;;;;;;;;;;;22.04;56.71;97621.94;4219468;28;5664;-59
2023/10/02 11:06:41;;;;;;;;;;;;;;;22.05;56.28;97620.88;4219378;28;5667;-59
2023/10/02 11:09:11;;;;;;;;;;;;;;;22.08;56.47;97617.75;4219533;28;6576;-59
2023/10/02 11:11:21;;;;;;;;;;;;;;;22.11;56.42;97621.00;4219391;28;7833;-59
2023/10/02 11:13:25;;;;;;;;;;;;;;;22.09;56.14;97613.16;4219459;28;5761;-59
2023/10/02 11:17:49;;;;;;;;;;;;;;;22.10;56.35;97619.38;4219103;28;5691;-59
2023/10/02 11:19:55;;;;;;;;;;;;;;;22.11;56.24;97618.28;4219271;28;5684;-59
2023/10/02 11:22:16;;;;;;;;;;;;;;;22.12;56.56;97617.22;4219223;28;5688;-59
2023/10/02 11:24:22;;;;;;;;;;;;;;;22.15;56.30;97611.34;4219308;28;5675;-59
2023/10/02 11:26:24;;;;;;;;;;;;;;;22.17;56.16;97603.84;4219194;28;5662;-60
2023/10/02 11:28:31;;;;;;;;;;;;;;;22.18;56.62;97608.16;4219288;28;5668;-59
2023/10/02 11:30:34;;;;;;;;;;;;;;;22.20;56.40;97603.31;4219231;28;5671;-59
2023/10/02 11:32:48;;;;;;;;;;;;;;;22.19;56.46;97601.69;4219300;28;5779;-60
2023/10/02 11:34:58;;;;;;;;;;;;;;;22.20;56.73;97597.94;4218819;28;5731;-58
2023/10/02 11:37:11;;;;;;;;;;;;;;;22.21;56.18;97584.25;4218827;28;5647;-58
2023/10/02 11:39:19;;;;;;;;;;;;;;;22.24;56.72;97589.13;4219027;28;5686;-58
2023/10/02 11:41:23;;;;;;;;;;;;;;;22.26;56.30;97580.81;4219085;28;5765;-58
2023/10/02 11:43:26;;;;;;;;;;;;;;;22.27;56.26;97583.25;4225708;28;5777;-58
2023/10/02 11:45:32;;;;;;;;;;;;;;;22.28;56.65;97575.97;4235303;28;5770;-58
2023/10/02 11:47:37;;;;;;;;;;;;;;;22.29;56.27;97575.72;4235582;28;5060;-58
2023/10/02 11:49:42;;;;;;;;;;;;;;;22.31;56.51;97572.78;4235571;28;5912;-58
2023/10/02 11:51:45;;;;;;;;;;;;;;;22.33;56.26;97570.69;4235541;28;5650;-58
2023/10/02 11:53:49;;;;;;;;;;;;;;;22.35;56.33;97566.66;4235575;28;5635;-58
2023/10/02 11:55:55;;;;;;;;;;;;;;;22.36;56.84;97559.41;4235079;28;5820;-58
2023/10/02 11:57:58;;;;;;;;;;;;;;;22.36;56.68;97557.50;4231236;28;5744;-59
2023/10/02 12:00:08;;;;;;;;;;;;;;;22.37;56.24;97556.44;4234874;28;5774;-59
2023/10/02 12:02:13;;;;;;;;;;;;;;;22.37;56.17;97551.06;4230765;28;5623;-58
2023/10/02 12:04:16;;;;;;;;;;;;;;;22.39;56.27;97550.81;4222457;28;5729;-59
2023/10/02 12:06:20;;;;;;;;;;;;;;;22.38;56.27;97543.78;4232835;28;5741;-59
2023/10/02 12:08:25;;;;;;;;;;;;;;;22.39;56.20;97537.34;4229954;28;5107;-59
2023/10/02 12:10:28;;;;;;;;;;;;;;;22.42;55.85;97536.00;4228778;28;5768;-59
2023/10/02 12:12:31;;;;;;;;;;;;;;;22.42;55.58;97531.44;4225842;28;6579;-59
2023/10/02 12:14:34;;;;;;;;;;;;;;;22.43;56.01;97526.91;4234781;28;5658;-59
2023/10/02 12:16:38;;;;;;;;;;;;;;;22.44;55.68;97532.03;4226515;28;6341;-59
2023/10/02 12:18:42;;;;;;;;;;;;;;;22.48;55.32;97530.44;4218255;28;6477;-59
2023/10/02 12:20:47;;;;;;;;;;;;;;;22.49;55.75;97531.25;4217957;28;6485;-59
2023/10/02 12:22:52;;;;;;;;;;;;;;;22.50;55.52;97530.19;4228339;28;5698;-58
2023/10/02 12:24:58;;;;;;;;;;;;;;;22.51;55.53;97529.94;4234650;28;5654;-59
2023/10/02 12:27:00;;;;;;;;;;;;;;;22.54;55.04;97524.06;4233606;28;5758;-59
2023/10/02 12:29:04;;;;;;;;;;;;;;;22.54;55.48;97524.06;4231164;28;5769;-59
2023/10/02 12:31:09;;;;;;;;;;;;;;;22.54;55.36;97510.59;4217627;28;5675;-59
2023/10/02 12:33:14;;;;;;;;;;;;;;;22.55;55.14;97514.91;4217508;28;5794;-59
2023/10/02 12:35:19;;;;;;;;;;;;;;;22.55;55.12;97514.91;4223145;28;5738;-59
2023/10/02 12:37:21;;;;;;;;;;;;;;;22.55;54.84;97511.41;4228654;28;5671;-59
2023/10/02 12:39:28;;;;;;;;;;;;;;;22.55;55.07;97509.53;4233488;28;5808;-59
2023/10/02 12:41:32;;;;;;;;;;;;;;;22.56;54.77;97505.75;4228167;28;5694;-59
2023/10/02 12:43:35;;;;;;;;;;;;;;;22.58;55.12;97502.81;4217720;28;5795;-59
2023/10/02 12:45:38;;;;;;;;;;;;;;;22.60;54.96;97500.69;4226341;28;5665;-59
2023/10/02 12:47:41;;;;;;;;;;;;;;;22.63;54.69;97500.16;4232046;28;5658;-59
2023/10/02 12:49:44;;;;;;;;;;;;;;;22.65;55.11;97496.16;4218033;28;5949;-59
2023/10/02 12:51:50;;;;;;;;;;;;;;;22.65;54.73;97498.88;4217674;28;5790;-59
2023/10/02 12:53:53;;;;;;;;;;;;;;;22.65;54.85;97496.16;4217751;28;5675;-58
2023/10/02 12:55:55;;;;;;;;;;;;;;;22.68;54.58;97492.16;4217504;28;5675;-58
2023/10/02 12:57:58;;;;;;;;;;;;;;;22.69;54.39;97492.97;4229567;28;5749;-58
2023/10/02 13:00:02;;;;;;;;;;;;;;;22.71;54.47;97491.63;4234464;28;5749;-57
2023/10/02 13:02:07;;;;;;;;;;;;;;;22.72;54.06;97489.75;4234078;28;5778;-58
2023/10/02 13:04:12;;;;;;;;;;;;;;;22.73;54.12;97485.97;4233172;28;5657;-58
2023/10/02 13:06:15;;;;;;;;;;;;;;;22.74;54.03;97479.53;4233432;28;5581;-58
2023/10/02 13:08:20;;;;;;;;;;;;;;;22.73;53.88;97476.00;4232947;28;5781;-58
2023/10/02 13:10:24;;;;;;;;;;;;;;;22.73;53.54;97476.00;4229986;28;5816;-59
2023/10/02 13:12:27;;;;;;;;;;;;;;;22.74;53.42;97463.34;4233616;28;5638;-58
2023/10/02 13:14:31;;;;;;;;;;;;;;;22.75;53.06;97462.28;4234010;28;5676;-59
2023/10/02 13:16:37;;;;;;;;;;;;;;;22.78;52.77;97459.91;4220308;28;5634;-59
2023/10/02 13:18:40;;;;;;;;;;;;;;;22.79;52.23;97453.44;4234349;28;5737;-59
2023/10/02 13:20:44;;;;;;;;;;;;;;;22.79;52.79;97460.72;4234405;28;5881;-59
2023/10/02 13:22:47;;;;;;;;;;;;;;;22.82;52.13;97460.19;4229688;28;7707;-59
2023/10/02 13:24:51;;;;;;;;;;;;;;;22.83;52.33;97448.34;4219005;28;5828;-60
2023/10/02 13:26:54;;;;;;;;;;;;;;;22.84;51.48;97450.00;4234319;28;5748;-59
2023/10/02 13:28:57;;;;;;;;;;;;;;;22.84;51.25;97447.31;4233928;28;6469;-59
2023/10/02 13:31:00;;;;;;;;;;;;;;;22.83;51.00;97451.88;4233912;28;5650;-59
2023/10/02 13:33:03;;;;;;;;;;;;;;;22.83;51.22;97451.03;4234448;28;5650;-59
2023/10/02 13:35:09;;;;;;;;;;;;;;;22.84;51.22;97444.63;4228438;28;5093;-59
2023/10/02 13:37:12;;;;;;;;;;;;;;;22.84;50.69;97444.63;4217215;28;5668;-58
2023/10/02 13:39:17;;;;;;;;;;;;;;;22.84;50.64;97442.72;4218949;28;5715;-58
2023/10/02 13:41:22;;;;;;;;;;;;;;;22.85;50.63;97441.66;4220392;28;5778;-57
2023/10/02 13:43:25;;;;;;;;;;;;;;;22.86;50.58;97445.16;4226768;28;5670;-58
2023/10/02 13:45:29;;;;;;;;;;;;;;;22.88;50.11;97443.88;4237676;28;5745;-58
2023/10/02 13:47:32;;;;;;;;;;;;;;;22.91;50.26;97440.66;4237678;28;5795;-58
2023/10/02 13:49:39;;;;;;;;;;;;;;;22.92;49.98;97444.16;4229671;28;5676;-58
2023/10/02 13:51:42;;;;;;;;;;;;;;;22.94;50.34;97439.31;4220026;28;5672;-58
2023/10/02 13:53:46;;;;;;;;;;;;;;;22.95;49.98;97438.25;4220297;28;5664;-58
2023/10/02 13:55:49;;;;;;;;;;;;;;;22.93;50.25;97440.38;4220251;28;6379;-58
2023/10/02 13:57:56;;;;;;;;;;;;;;;22.93;50.16;97435.81;4220142;28;5684;-58
2023/10/02 13:59:59;;;;;;;;;;;;;;;22.97;50.37;97435.28;4229457;28;5658;-59
2023/10/02 14:02:04;;;;;;;;;;;;;;;22.97;50.31;97436.09;4236781;28;5642;-59
2023/10/02 14:04:10;;;;;;;;;;;;;;;22.97;50.36;97433.41;4236827;28;5675;-59
2023/10/02 14:06:14;;;;;;;;;;;;;;;22.97;50.35;97425.31;4236922;28;6430;-59
2023/10/02 14:08:17;;;;;;;;;;;;;;;22.97;50.28;97425.31;4237382;28;5638;-57
2023/10/02 14:10:21;;;;;;;;;;;;;;;22.99;50.04;97422.34;4237244;28;5662;-58
2023/10/02 14:12:26;;;;;;;;;;;;;;;22.99;49.89;97408.88;4237131;28;5634;-58
2023/10/02 14:14:30;;;;;;;;;;;;;;;23.00;49.56;97411.34;4237300;28;5927;-58
2023/10/02 14:16:34;;;;;;;;;;;;;;;23.02;49.92;97417.28;4236830;28;7667;-57
2023/10/02 14:18:38;;;;;;;;;;;;;;;23.01;49.46;97409.47;4237385;28;5654;-58
2023/10/02 14:20:41;;;;;;;;;;;;;;;23.02;49.11;97414.59;4237140;28;5737;-58
2023/10/02 14:22:46;;;;;;;;;;;;;;;23.03;49.25;97402.72;4236267;28;5782;-58
2023/10/02 14:24:50;;;;;;;;;;;;;;;23.03;49.19;97405.44;4220339;28;5677;-58
2023/10/02 14:26:53;;;;;;;;;;;;;;;23.03;49.07;97404.63;4220185;28;5751;-58
2023/10/02 14:28:57;;;;;;;;;;;;;;;23.03;48.79;97407.31;4220044;28;5767;-58
2023/10/02 14:31:02;;;;;;;;;;;;;;;23.04;48.95;97407.06;4219936;28;5667;-58
2023/10/02 14:33:05;;;;;;;;;;;;;;;23.06;48.89;97406.78;4232129;28;5646;-58
2023/10/02 14:35:09;;;;;;;;;;;;;;;23.06;48.62;97407.59;4235503;28;5642;-58
2023/10/02 14:37:12;;;;;;;;;;;;;;;23.06;48.75;97407.59;4236335;28;5637;-58
2023/10/02 14:39:16;;;;;;;;;;;;;;;23.06;48.56;97404.91;4237013;28;5762;-58
2023/10/02 14:41:19;;;;;;;;;;;;;;;23.05;48.61;97405.16;4235103;28;5705;-58
2023/10/02 14:43:21;;;;;;;;;;;;;;;23.04;48.84;97404.34;4226945;28;5626;-58
2023/10/02 14:45:26;;;;;;;;;;;;;;;23.04;48.74;97396.25;4235889;28;5812;-58
2023/10/02 14:47:31;;;;;;;;;;;;;;;23.05;48.75;97389.78;4234207;28;5662;-59
2023/10/02 14:49:35;;;;;;;;;;;;;;;23.04;48.19;97393.56;4233351;28;5865;-59
2023/10/02 14:51:40;;;;;;;;;;;;;;;23.06;48.01;97390.59;4228551;28;5657;-59
2023/10/02 14:53:43;;;;;;;;;;;;;;;23.07;48.45;97392.22;4231812;28;5741;-59
2023/10/02 14:55:46;;;;;;;;;;;;;;;23.07;47.93;97392.22;4229316;28;5815;-58
2023/10/02 14:57:50;;;;;;;;;;;;;;;23.07;48.40;97386.84;4232073;28;5682;-58
2023/10/02 14:59:54;;;;;;;;;;;;;;;23.08;48.31;97383.06;4226806;28;5746;-58
2023/10/02 15:01:57;;;;;;;;;;;;;;;23.06;48.24;97380.63;4225592;28;5844;-59
2023/10/02 15:04:01;;;;;;;;;;;;;;;23.08;48.13;97381.19;4234609;28;5654;-59
2023/10/02 15:06:05;;;;;;;;;;;;;;;23.09;48.38;97380.09;4231715;28;5836;-59
2023/10/02 15:08:12;;;;;;;;;;;;;;;23.09;48.05;97371.22;4227016;28;5741;-59
2023/10/02 15:10:17;;;;;;;;;;;;;;;23.09;48.52;97372.03;4238465;27;5641;-59
2023/10/02 15:12:20;;;;;;;;;;;;;;;23.10;48.74;97372.84;4234610;27;5739;-59
2023/10/02 15:14:23;;;;;;;;;;;;;;;23.10;48.28;97376.34;4236363;27;5754;-59
2023/10/02 15:16:26;;;;;;;;;;;;;;;23.09;48.61;97372.03;4236627;27;5784;-59
2023/10/02 15:18:29;;;;;;;;;;;;;;;23.10;48.46;97375.53;4234370;27;5666;-59
2023/10/02 15:20:34;;;;;;;;;;;;;;;23.09;48.79;97368.50;4226621;27;5683;-57
2023/10/02 15:22:36;;;;;;;;;;;;;;;23.09;48.45;97372.03;4229243;27;5746;-57
2023/10/02 15:24:39;;;;;;;;;;;;;;;23.07;48.44;97360.69;4224452;28;5753;-57
2023/10/02 15:26:45;;;;;;;;;;;;;;;23.07;48.44;97363.38;4231957;27;5646;-58
2023/10/02 15:28:48;;;;;;;;;;;;;;;23.07;48.76;97360.69;4227308;28;5715;-59
2023/10/02 15:30:53;;;;;;;;;;;;;;;23.10;48.72;97364.75;4234565;28;5650;-59
2023/10/02 15:32:58;;;;;;;;;;;;;;;23.10;48.94;97356.66;4231780;28;5645;-59
2023/10/02 15:35:04;;;;;;;;;;;;;;;23.10;48.91;97360.16;4233002;28;5617;-59
2023/10/02 15:37:08;;;;;;;;;;;;;;;23.11;48.72;97359.13;4234564;28;5650;-58
2023/10/02 15:39:14;;;;;;;;;;;;;;;23.13;48.69;97356.97;4226221;28;5668;-57
2023/10/02 15:41:27;;;;;;;;;;;;;;;23.12;49.09;97358.03;4218719;28;5679;-58
2023/10/02 15:43:30;;;;;;;;;;;;;;;23.12;48.92;97358.03;4233604;28;6510;-58
2023/10/02 15:45:35;;;;;;;;;;;;;;;23.10;49.20;97349.38;4222962;28;5654;-57
2023/10/02 15:47:39;;;;;;;;;;;;;;;23.10;49.09;97354.75;4228723;28;5085;-61
2023/10/02 15:49:45;;;;;;;;;;;;;;;23.10;48.68;97352.06;4226668;28;5683;-60
2023/10/02 15:51:50;;;;;;;;;;;;;;;23.09;49.02;97347.75;4220512;28;5754;-60
2023/10/02 15:53:56;;;;;;;;;;;;;;;23.08;49.05;97348.81;4232868;28;6562;-59
2023/10/02 15:55:59;;;;;;;;;;;;;;;23.08;49.04;97343.44;4221072;28;5845;-59
2023/10/02 15:58:02;;;;;;;;;;;;;;;23.09;48.71;97339.66;4226736;28;6992;-60
2023/10/02 16:00:08;;;;;;;;;;;;;;;23.08;48.70;97339.91;4218463;28;5796;-59
2023/10/02 16:02:11;;;;;;;;;;;;;;;23.08;48.83;97342.63;4226107;28;5664;-59
2023/10/02 16:04:15;;;;;;;;;;;;;;;23.07;48.91;97339.09;4226253;28;5659;-59
2023/10/02 16:06:20;;;;;;;;;;;;;;;23.06;48.99;97340.19;4230513;28;5749;-60
2023/10/02 16:08:23;;;;;;;;;;;;;;;23.08;48.73;97346.13;4230972;28;5847;-59
2023/10/02 16:10:29;;;;;;;;;;;;;;;23.07;48.70;97352.59;4224573;28;5675;-59
2023/10/02 16:12:33;;;;;;;;;;;;;;;23.07;48.95;97349.09;4226605;28;5758;-60
2023/10/02 16:14:36;;;;;;;;;;;;;;;23.05;48.89;97343.16;4230707;28;5732;-60
2023/10/02 16:16:39;;;;;;;;;;;;;;;23.03;48.65;97350.69;4226347;28;6334;-60